createdAt,value
2023-03-26T00:01:33.647Z,99575.69
2023-03-26T00:04:02.272Z,99573.94
2023-03-26T00:06:34.936Z,99572.19
2023-03-26T00:09:03.417Z,99559.97
2023-03-26T00:11:31.799Z,99566.06
2023-03-26T00:13:59.844Z,99566.06
2023-03-26T00:16:29.953Z,99555.53
2023-03-26T00:18:59.955Z,99558.13
2023-03-26T00:21:30.350Z,99555.50
2023-03-26T00:24:04.486Z,99552.84
2023-03-26T00:26:33.768Z,99551.00
2023-03-26T00:29:04.043Z,99545.72
2023-03-26T00:31:32.825Z,99548.25
2023-03-26T00:34:03.693Z,99558.63
2023-03-26T00:36:32.332Z,99575.13
2023-03-26T00:39:05.180Z,99576.72
2023-03-26T00:41:37.037Z,99566.97
2023-03-26T00:44:05.900Z,99563.31
2023-03-26T00:46:33.907Z,99576.34
2023-03-26T00:49:03.846Z,99580.63
2023-03-26T00:51:33.906Z,99589.28
2023-03-26T00:54:03.471Z,99572.56
2023-03-26T00:56:31.530Z,99573.34
2023-03-26T00:59:00.252Z,99572.38
2023-03-26T01:01:30.627Z,99564.47
2023-03-26T01:04:20.169Z,99569.69
2023-03-26T01:06:48.777Z,99560.94
2023-03-26T01:09:20.044Z,99559.13
2023-03-26T01:11:49.923Z,99555.69
2023-03-26T01:14:20.744Z,99564.47
2023-03-26T01:16:53.055Z,99571.44
2023-03-26T01:19:26.938Z,99566.09
2023-03-26T01:21:55.084Z,99567.84
2023-03-26T01:24:24.454Z,99551.22
2023-03-26T01:27:06.025Z,99550.44
2023-03-26T01:29:42.933Z,99545.34
2023-03-26T01:32:23.248Z,99534.00
2023-03-26T01:35:06.345Z,99540.97
2023-03-26T01:37:41.557Z,99535.72
2023-03-26T01:40:18.695Z,99530.50
2023-03-26T01:42:53.205Z,99527.78
2023-03-26T01:45:25.693Z,99520.91
2023-03-26T01:47:54.618Z,99514.00
2023-03-26T01:50:22.740Z,99512.25
2023-03-26T01:52:50.925Z,99510.50
2023-03-26T01:55:20.878Z,99516.63
2023-03-26T01:57:56.881Z,99523.59
2023-03-26T02:00:31.070Z,99523.50
2023-03-26T02:03:23.714Z,99523.47
2023-03-26T02:05:58.669Z,99524.25
2023-03-26T02:08:35.772Z,99525.94
2023-03-26T02:11:11.545Z,99531.09
2023-03-26T02:13:40.556Z,99525.88
2023-03-26T02:16:11.839Z,99526.69
2023-03-26T02:18:39.987Z,99524.00
2023-03-26T02:21:12.350Z,99519.59
2023-03-26T02:23:46.896Z,99523.94
2023-03-26T02:26:18.872Z,99523.03
2023-03-26T02:28:58.757Z,99526.53
2023-03-26T02:31:27.327Z,99524.72
2023-03-26T02:33:56.691Z,99524.69
2023-03-26T02:36:27.339Z,99525.53
2023-03-26T02:39:00.323Z,99517.59
2023-03-26T02:41:32.420Z,99531.50
2023-03-26T02:44:04.920Z,99535.78
2023-03-26T02:46:51.827Z,99533.09
2023-03-26T02:49:38.388Z,99532.13
2023-03-26T02:52:07.393Z,99539.91
2023-03-26T02:54:37.136Z,99524.19
2023-03-26T02:57:25.883Z,99524.13
2023-03-26T03:00:23.653Z,99516.25
2023-03-26T03:03:11.852Z,99510.09
2023-03-26T03:05:59.096Z,99510.03
2023-03-26T03:08:34.667Z,99511.78
2023-03-26T03:11:24.765Z,99516.09
2023-03-26T03:13:55.504Z,99503.81
2023-03-26T03:16:26.594Z,99512.50
2023-03-26T03:18:58.173Z,99515.91
2023-03-26T03:21:37.852Z,99515.88
2023-03-26T03:24:07.252Z,99514.06
2023-03-26T03:26:38.781Z,99514.00
2023-03-26T03:29:34.096Z,99515.63
2023-03-26T03:32:31.043Z,99508.63
2023-03-26T03:35:03.040Z,99513.84
2023-03-26T03:37:31.336Z,99514.72
2023-03-26T03:40:00.597Z,99513.75
2023-03-26T03:42:32.296Z,99507.66
2023-03-26T03:45:06.491Z,99507.66
2023-03-26T03:48:04.767Z,99511.97
2023-03-26T03:50:42.179Z,99508.47
2023-03-26T03:53:26.092Z,99513.69
2023-03-26T03:55:56.162Z,99504.09
2023-03-26T03:58:31.095Z,99509.34
2023-03-26T04:01:08.336Z,99500.63
2023-03-26T04:03:54.795Z,99497.94
2023-03-26T04:06:26.688Z,99499.66
2023-03-26T04:08:55.357Z,99504.00
2023-03-26T04:11:23.702Z,99514.44
2023-03-26T04:14:14.413Z,99523.16
2023-03-26T04:17:13.637Z,99523.00
2023-03-26T04:19:42.113Z,99517.63
2023-03-26T04:22:11.943Z,99519.31
2023-03-26T04:25:02.431Z,99516.53
2023-03-26T04:27:55.741Z,99519.91
2023-03-26T04:30:44.964Z,99519.88
2023-03-26T04:33:31.696Z,99522.47
2023-03-26T04:36:03.239Z,99517.97
2023-03-26T04:38:41.470Z,99523.09
2023-03-26T04:41:12.795Z,99514.28
2023-03-26T04:43:50.774Z,99508.91
2023-03-26T04:46:25.692Z,99507.94
2023-03-26T04:49:06.544Z,99506.97
2023-03-26T04:51:39.494Z,99510.31
2023-03-26T04:54:21.704Z,99505.81
2023-03-26T04:56:59.766Z,99503.94
2023-03-26T04:59:37.218Z,99503.09
2023-03-26T05:02:09.658Z,99505.72
2023-03-26T05:04:50.514Z,99502.16
2023-03-26T05:07:22.445Z,99503.03
2023-03-26T05:09:53.872Z,99502.91
2023-03-26T05:12:41.597Z,99501.94
2023-03-26T05:15:14.277Z,99507.94
2023-03-26T05:18:00.887Z,99513.03
2023-03-26T05:20:38.788Z,99506.84
2023-03-26T05:23:09.310Z,99511.09
2023-03-26T05:25:39.659Z,99517.13
2023-03-26T05:28:15.979Z,99503.94
2023-03-26T05:30:54.591Z,99510.81
2023-03-26T05:33:25.429Z,99512.47
2023-03-26T05:36:21.400Z,99514.94
2023-03-26T05:38:58.231Z,99515.78
2023-03-26T05:41:50.077Z,99519.19
2023-03-26T05:44:19.624Z,99520.09
2023-03-26T05:46:47.792Z,99510.56
2023-03-26T05:49:22.242Z,99517.28
2023-03-26T05:51:53.238Z,99514.63
2023-03-26T05:54:36.278Z,99504.91
2023-03-26T05:57:23.967Z,99509.28
2023-03-26T06:00:12.346Z,99515.41
2023-03-26T06:02:46.949Z,99520.72
2023-03-26T06:05:50.391Z,99525.19
2023-03-26T06:08:23.720Z,99531.31
2023-03-26T06:10:59.793Z,99524.28
2023-03-26T06:13:30.588Z,99529.50
2023-03-26T06:15:59.099Z,99534.63
2023-03-26T06:18:38.803Z,99523.22
2023-03-26T06:21:29.255Z,99529.16
2023-03-26T06:24:03.713Z,99520.38
2023-03-26T06:26:45.197Z,99534.25
2023-03-26T06:29:39.308Z,99528.94
2023-03-26T06:32:27.142Z,99528.03
2023-03-26T06:35:01.061Z,99535.06
2023-03-26T06:37:29.718Z,99528.97
2023-03-26T06:40:03.206Z,99525.44
2023-03-26T06:43:09.892Z,99529.88
2023-03-26T06:45:52.098Z,99530.91
2023-03-26T06:48:35.584Z,99532.66
2023-03-26T06:51:18.668Z,99529.31
2023-03-26T06:54:05.895Z,99530.22
2023-03-26T06:56:56.313Z,99535.59
2023-03-26T06:59:36.612Z,99540.06
2023-03-26T07:02:23.340Z,99535.84
2023-03-26T07:05:26.565Z,99540.91
2023-03-26T07:08:22.918Z,99535.88
2023-03-26T07:11:11.250Z,99546.78
2023-03-26T07:13:57.316Z,99550.53
2023-03-26T07:16:46.668Z,99561.38
2023-03-26T07:19:37.677Z,99568.75
2023-03-26T07:22:06.736Z,99565.56
2023-03-26T07:24:54.206Z,99564.13
2023-03-26T07:27:53.526Z,99559.88
2023-03-26T07:30:43.175Z,99567.94
2023-03-26T07:33:31.922Z,99567.16
2023-03-26T07:36:25.065Z,99575.22
2023-03-26T07:39:34.160Z,99573.72
2023-03-26T07:42:41.511Z,99570.31
2023-03-26T07:45:39.636Z,99561.47
2023-03-26T07:48:25.567Z,99565.06
2023-03-26T07:51:09.743Z,99565.94
2023-03-26T07:53:52.726Z,99562.72
2023-03-26T07:56:44.237Z,99575.91
2023-03-26T07:59:35.597Z,99571.66
2023-03-26T08:02:43.148Z,99576.19
2023-03-26T08:05:54.198Z,99573.56
2023-03-26T08:08:40.778Z,99570.19
2023-03-26T08:11:40.388Z,99572.19
2023-03-26T08:14:22.763Z,99573.13
2023-03-26T08:16:56.071Z,99585.19
2023-03-26T08:19:42.341Z,99585.13
2023-03-26T08:22:16.897Z,99572.78
2023-03-26T08:24:57.317Z,99579.66
2023-03-26T08:27:37.744Z,99589.16
2023-03-26T08:30:11.931Z,99591.03
2023-03-26T08:32:40.993Z,99595.38
2023-03-26T08:35:14.500Z,99608.41
2023-03-26T08:37:45.422Z,99596.13
2023-03-26T08:40:19.741Z,99597.78
2023-03-26T08:43:18.785Z,99598.63
2023-03-26T08:46:12.421Z,99601.34
2023-03-26T08:49:04.437Z,99597.88
2023-03-26T08:52:10.866Z,99596.88
2023-03-26T08:55:04.322Z,99594.28
2023-03-26T08:57:54.623Z,99606.59
2023-03-26T09:00:41.529Z,99607.47
2023-03-26T09:03:37.080Z,99594.34
2023-03-26T09:06:41.667Z,99597.84
2023-03-26T09:09:30.097Z,99596.13
2023-03-26T09:12:44.546Z,99604.09
2023-03-26T09:15:46.990Z,99598.00
2023-03-26T09:18:59.461Z,99603.16
2023-03-26T09:21:43.116Z,99591.81
2023-03-26T09:25:02.565Z,99583.13
2023-03-26T09:27:40.911Z,99591.81
2023-03-26T09:30:38.568Z,99606.66
2023-03-26T09:33:29.148Z,99606.78
2023-03-26T09:36:16.782Z,99597.97
2023-03-26T09:38:46.249Z,99605.78
2023-03-26T09:41:19.319Z,99599.63
2023-03-26T09:44:31.891Z,99603.16
2023-03-26T09:47:23.434Z,99605.78
2023-03-26T09:50:00.571Z,99599.63
2023-03-26T09:52:50.382Z,99599.63
2023-03-26T09:55:35.738Z,99602.41
2023-03-26T09:58:22.912Z,99615.66
2023-03-26T10:01:05.522Z,99613.19
2023-03-26T10:03:53.111Z,99619.47
2023-03-26T10:06:34.448Z,99621.28
2023-03-26T10:09:21.993Z,99617.84
2023-03-26T10:12:02.902Z,99619.56
2023-03-26T10:14:39.958Z,99615.16
2023-03-26T10:17:26.469Z,99608.94
2023-03-26T10:20:09.587Z,99610.56
2023-03-26T10:22:47.792Z,99613.19
2023-03-26T10:25:37.913Z,99607.91
2023-03-26T10:28:27.241Z,99606.94
2023-03-26T10:31:19.608Z,99599.06
2023-03-26T10:34:01.614Z,99602.50
2023-03-26T10:36:34.138Z,99610.41
2023-03-26T10:39:37.666Z,99605.13
2023-03-26T10:42:41.709Z,99615.56
2023-03-26T10:45:32.462Z,99626.13
2023-03-26T10:48:18.213Z,99622.75
2023-03-26T10:51:18.892Z,99621.06
2023-03-26T10:53:53.227Z,99628.00
2023-03-26T10:56:26.681Z,99623.69
2023-03-26T10:58:56.925Z,99625.53
2023-03-26T11:01:37.205Z,99630.81
2023-03-26T11:04:19.725Z,99622.03
2023-03-26T11:06:55.738Z,99622.00
2023-03-26T11:09:34.821Z,99622.81
2023-03-26T11:12:26.868Z,99626.38
2023-03-26T11:15:12.932Z,99623.69
2023-03-26T11:17:50.797Z,99629.03
2023-03-26T11:20:26.321Z,99629.91
2023-03-26T11:23:13.584Z,99626.28
2023-03-26T11:26:08.370Z,99632.38
2023-03-26T11:29:03.764Z,99627.91
2023-03-26T11:32:02.243Z,99629.69
2023-03-26T11:34:37.124Z,99627.13
2023-03-26T11:37:09.471Z,99636.69
2023-03-26T11:39:47.437Z,99640.16
2023-03-26T11:42:19.313Z,99627.06
2023-03-26T11:44:54.265Z,99627.03
2023-03-26T11:47:25.997Z,99634.03
2023-03-26T11:49:58.748Z,99630.63
2023-03-26T11:52:27.646Z,99627.16
2023-03-26T11:54:58.531Z,99630.63
2023-03-26T11:57:31.213Z,99633.28
2023-03-26T12:00:08.335Z,99634.16
2023-03-26T12:02:41.948Z,99638.41
2023-03-26T12:05:18.095Z,99639.25
2023-03-26T12:07:51.336Z,99634.00
2023-03-26T12:10:29.507Z,99632.28
2023-03-26T12:13:01.555Z,99628.78
2023-03-26T12:15:32.101Z,99628.81
2023-03-26T12:18:18.866Z,99636.69
2023-03-26T12:20:48.220Z,99634.16
2023-03-26T12:23:37.699Z,99627.41
2023-03-26T12:26:15.171Z,99627.31
2023-03-26T12:28:50.474Z,99640.38
2023-03-26T12:31:21.543Z,99639.56
2023-03-26T12:34:10.231Z,99635.28
2023-03-26T12:36:39.141Z,99633.56
2023-03-26T12:40:07.250Z,99639.88
2023-03-26T12:44:49.265Z,99635.63
2023-03-26T12:45:25.611Z,99635.69
2023-03-26T12:48:04.104Z,99632.41
2023-03-26T12:50:50.660Z,99638.66
2023-03-26T12:53:34.835Z,99640.31
2023-03-26T12:56:15.564Z,99643.81
2023-03-26T12:59:21.834Z,99640.41
2023-03-26T13:02:01.327Z,99641.41
2023-03-26T13:05:02.250Z,99637.13
2023-03-26T13:07:48.433Z,99640.75
2023-03-26T13:10:46.409Z,99642.59
2023-03-26T13:13:34.995Z,99636.50
2023-03-26T13:16:10.611Z,99640.97
2023-03-26T13:18:48.601Z,99641.00
2023-03-26T13:21:26.727Z,99645.47
2023-03-26T13:24:03.520Z,99646.38
2023-03-26T13:26:47.551Z,99643.84
2023-03-26T13:29:27.037Z,99639.53
2023-03-26T13:32:05.030Z,99631.69
2023-03-26T13:34:42.543Z,99643.06
2023-03-26T13:37:18.793Z,99642.31
2023-03-26T13:39:57.131Z,99633.66
2023-03-26T13:42:37.958Z,99643.25
2023-03-26T13:45:18.315Z,99641.44
2023-03-26T13:47:51.060Z,99643.19
2023-03-26T13:50:26.172Z,99638.81
2023-03-26T13:52:59.065Z,99636.19
2023-03-26T13:55:30.847Z,99644.03
2023-03-26T13:58:05.077Z,99643.25
2023-03-26T14:00:48.841Z,99643.28
2023-03-26T14:03:22.774Z,99641.63
2023-03-26T14:05:56.978Z,99641.63
2023-03-26T14:08:32.984Z,99642.59
2023-03-26T14:11:10.748Z,99642.50
2023-03-26T14:13:46.192Z,99643.47
2023-03-26T14:16:19.289Z,99638.31
2023-03-26T14:18:53.674Z,99644.41
2023-03-26T14:21:51.848Z,99649.75
2023-03-26T14:24:46.108Z,99651.59
2023-03-26T14:27:34.163Z,99648.09
2023-03-26T14:30:44.134Z,99645.44
2023-03-26T14:33:34.202Z,99644.53
2023-03-26T14:36:11.363Z,99631.44
2023-03-26T14:39:06.546Z,99630.63
2023-03-26T14:41:43.304Z,99634.16
2023-03-26T14:44:48.184Z,99632.31
2023-03-26T14:47:20.118Z,99627.09
2023-03-26T14:50:09.719Z,99635.88
2023-03-26T14:52:47.820Z,99636.78
2023-03-26T14:55:30.038Z,99646.47
2023-03-26T14:58:18.319Z,99635.22
2023-03-26T15:01:16.000Z,99642.34
2023-03-26T15:04:20.562Z,99648.50
2023-03-26T15:07:18.903Z,99641.66
2023-03-26T15:10:32.220Z,99652.22
2023-03-26T15:13:32.577Z,99647.09
2023-03-26T15:16:14.609Z,99656.75
2023-03-26T15:19:25.643Z,99656.88
2023-03-26T15:22:38.906Z,99649.91
2023-03-26T15:25:49.092Z,99663.03
2023-03-26T15:28:44.422Z,99658.72
2023-03-26T15:31:37.312Z,99657.88
2023-03-26T15:34:44.045Z,99658.75
2023-03-26T15:37:41.713Z,99671.81
2023-03-26T15:40:40.487Z,99665.72
2023-03-26T15:43:12.986Z,99674.47
2023-03-26T15:45:44.859Z,99669.28
2023-03-26T15:48:30.086Z,99665.84
2023-03-26T15:51:08.920Z,99670.22
2023-03-26T15:53:44.807Z,99668.59
2023-03-26T15:56:27.908Z,99665.97
2023-03-26T15:59:07.292Z,99666.78
2023-03-26T16:02:03.951Z,99669.47
2023-03-26T16:04:50.723Z,99655.59
2023-03-26T16:07:44.264Z,99674.81
2023-03-26T16:10:29.274Z,99667.03
2023-03-26T16:13:24.937Z,99664.50
2023-03-26T16:15:57.992Z,99672.38
2023-03-26T16:18:35.950Z,99669.88
2023-03-26T16:21:41.177Z,99669.94
2023-03-26T16:24:30.510Z,99667.41
2023-03-26T16:27:35.063Z,99673.53
2023-03-26T16:30:30.336Z,99677.84
2023-03-26T16:33:10.454Z,99686.59
2023-03-26T16:36:18.418Z,99692.72
2023-03-26T16:38:50.385Z,99691.03
2023-03-26T16:41:20.417Z,99689.31
2023-03-26T16:43:56.696Z,99690.19
2023-03-26T16:46:38.384Z,99699.75
2023-03-26T16:49:21.031Z,99700.63
2023-03-26T16:52:09.665Z,99704.06
2023-03-26T16:54:46.038Z,99703.22
2023-03-26T16:57:30.558Z,99694.53
2023-03-26T17:00:24.591Z,99699.69
2023-03-26T17:03:00.013Z,99691.88
2023-03-26T17:05:37.338Z,99699.69
2023-03-26T17:08:19.099Z,99702.28
2023-03-26T17:11:18.087Z,99697.97
2023-03-26T17:13:52.637Z,99692.78
2023-03-26T17:16:25.910Z,99704.00
2023-03-26T17:19:04.311Z,99702.25
2023-03-26T17:21:46.172Z,99704.00
2023-03-26T17:24:28.698Z,99702.31
2023-03-26T17:27:30.990Z,99711.06
2023-03-26T17:30:11.213Z,99711.88
2023-03-26T17:32:56.482Z,99705.78
2023-03-26T17:35:40.636Z,99703.19
2023-03-26T17:38:45.561Z,99700.66
2023-03-26T17:41:36.766Z,99704.19
2023-03-26T17:44:28.121Z,99698.13
2023-03-26T17:46:58.272Z,99697.25
2023-03-26T17:49:31.173Z,99699.88
2023-03-26T17:52:02.115Z,99699.84
2023-03-26T17:54:34.009Z,99696.34
2023-03-26T17:57:07.798Z,99698.97
2023-03-26T17:59:39.302Z,99691.09
2023-03-26T18:02:15.374Z,99700.66
2023-03-26T18:04:48.289Z,99694.56
2023-03-26T18:07:49.949Z,99690.25
2023-03-26T18:10:33.351Z,99698.13
2023-03-26T18:13:20.504Z,99697.25
2023-03-26T18:15:56.869Z,99696.34
2023-03-26T18:18:32.778Z,99699.88
2023-03-26T18:21:07.158Z,99705.13
2023-03-26T18:23:38.908Z,99703.41
2023-03-26T18:26:14.834Z,99710.34
2023-03-26T18:28:46.454Z,99708.69
2023-03-26T18:31:19.727Z,99706.94
2023-03-26T18:33:49.956Z,99708.69
2023-03-26T18:36:19.185Z,99709.56
2023-03-26T18:38:48.809Z,99713.06
2023-03-26T18:41:27.259Z,99705.25
2023-03-26T18:44:01.985Z,99713.97
2023-03-26T18:46:30.517Z,99703.56
2023-03-26T18:48:59.990Z,99712.22
2023-03-26T18:51:29.474Z,99695.72
2023-03-26T18:54:01.844Z,99697.44
2023-03-26T18:56:33.791Z,99706.13
2023-03-26T18:59:05.875Z,99702.63
2023-03-26T19:01:37.606Z,99698.25
2023-03-26T19:04:09.355Z,99697.38
2023-03-26T19:06:43.551Z,99704.34
2023-03-26T19:09:30.456Z,99705.22
2023-03-26T19:12:06.897Z,99704.34
2023-03-26T19:14:52.045Z,99704.34
2023-03-26T19:17:20.314Z,99712.19
2023-03-26T19:19:50.666Z,99701.81
2023-03-26T19:22:20.564Z,99700.09
2023-03-26T19:24:48.944Z,99701.84
2023-03-26T19:27:17.125Z,99690.53
2023-03-26T19:29:47.769Z,99699.19
2023-03-26T19:32:19.122Z,99687.88
2023-03-26T19:34:49.289Z,99689.63
2023-03-26T19:37:23.022Z,99685.31
2023-03-26T19:39:52.878Z,99680.09
2023-03-26T19:42:26.672Z,99684.44
2023-03-26T19:44:59.409Z,99682.72
2023-03-26T19:47:46.083Z,99686.19
2023-03-26T19:50:26.092Z,99686.16
2023-03-26T19:53:17.674Z,99688.78
2023-03-26T19:55:57.404Z,99692.31
2023-03-26T19:58:27.209Z,99696.66
2023-03-26T20:00:57.126Z,99693.19
2023-03-26T20:03:29.587Z,99690.59
2023-03-26T20:05:58.081Z,99684.50
2023-03-26T20:08:27.941Z,99689.72
2023-03-26T20:10:58.503Z,99681.91
2023-03-26T20:13:27.041Z,99684.50
2023-03-26T20:16:05.541Z,99674.94
2023-03-26T20:18:34.762Z,99674.94
2023-03-26T20:21:03.122Z,99673.22
2023-03-26T20:23:31.118Z,99670.59
2023-03-26T20:25:59.163Z,99680.16
2023-03-26T20:28:27.179Z,99682.78
2023-03-26T20:30:56.992Z,99677.59
2023-03-26T20:33:27.107Z,99678.47
2023-03-26T20:35:57.130Z,99675.91
2023-03-26T20:38:39.238Z,99675.91
2023-03-26T20:41:10.770Z,99678.47
2023-03-26T20:43:38.908Z,99689.78
2023-03-26T20:46:11.573Z,99680.22
2023-03-26T20:48:39.738Z,99680.22
2023-03-26T20:51:07.963Z,99678.47
2023-03-26T20:53:36.106Z,99677.63
2023-03-26T20:56:04.375Z,99671.56
2023-03-26T20:58:32.594Z,99669.81
2023-03-26T21:01:02.602Z,99668.09
2023-03-26T21:03:32.334Z,99670.69
2023-03-26T21:06:01.970Z,99668.09
2023-03-26T21:08:35.406Z,99665.50
2023-03-26T21:11:04.042Z,99672.47
2023-03-26T21:13:40.218Z,99671.59
2023-03-26T21:16:11.079Z,99675.97
2023-03-26T21:18:41.925Z,99682.88
2023-03-26T21:21:28.078Z,99680.28
2023-03-26T21:24:05.111Z,99690.69
2023-03-26T21:26:41.572Z,99686.31
2023-03-26T21:29:11.806Z,99681.13
2023-03-26T21:31:40.488Z,99688.91
2023-03-26T21:34:13.323Z,99684.56
2023-03-26T21:36:42.181Z,99678.47
2023-03-26T21:39:11.776Z,99675.88
2023-03-26T21:41:45.818Z,99679.31
2023-03-26T21:44:15.285Z,99677.56
2023-03-26T21:46:44.243Z,99679.28
2023-03-26T21:49:16.113Z,99679.31
2023-03-26T21:51:45.049Z,99681.06
2023-03-26T21:54:22.719Z,99681.09
2023-03-26T21:57:01.951Z,99671.53
2023-03-26T21:59:40.976Z,99668.03
2023-03-26T22:02:18.553Z,99668.88
2023-03-26T22:04:52.974Z,99668.03
2023-03-26T22:07:27.548Z,99667.16
2023-03-26T22:09:56.331Z,99668.03
2023-03-26T22:12:25.638Z,99655.84
2023-03-26T22:14:53.856Z,99664.56
2023-03-26T22:17:23.249Z,99665.44
2023-03-26T22:19:52.620Z,99665.47
2023-03-26T22:22:22.119Z,99665.47
2023-03-26T22:24:50.188Z,99661.97
2023-03-26T22:27:18.443Z,99668.91
2023-03-26T22:29:46.563Z,99676.75
2023-03-26T22:32:14.612Z,99669.75
2023-03-26T22:34:45.146Z,99675.88
2023-03-26T22:37:16.222Z,99675.88
2023-03-26T22:39:44.392Z,99680.25
2023-03-26T22:42:12.382Z,99672.44
2023-03-26T22:44:40.883Z,99675.97
2023-03-26T22:47:09.603Z,99681.16
2023-03-26T22:49:37.603Z,99675.09
2023-03-26T22:52:06.058Z,99665.56
2023-03-26T22:54:36.533Z,99668.19
2023-03-26T22:57:04.872Z,99666.47
2023-03-26T22:59:32.998Z,99661.25
2023-03-26T23:02:01.341Z,99669.06
2023-03-26T23:04:32.259Z,99661.22
2023-03-26T23:07:00.850Z,99661.22
2023-03-26T23:09:29.598Z,99667.31
2023-03-26T23:11:59.066Z,99667.34
2023-03-26T23:14:28.674Z,99665.63
2023-03-26T23:16:57.201Z,99651.72
2023-03-26T23:19:25.790Z,99660.41
2023-03-26T23:21:53.826Z,99643.06
2023-03-26T23:24:21.967Z,99649.13
2023-03-26T23:26:51.275Z,99639.59
2023-03-26T23:29:21.150Z,99636.13
2023-03-26T23:31:49.426Z,99640.47
2023-03-26T23:34:18.570Z,99623.97
2023-03-26T23:36:47.021Z,99625.72
2023-03-26T23:39:15.971Z,99620.50
2023-03-26T23:41:44.105Z,99623.09
2023-03-26T23:44:14.509Z,99636.97
2023-03-26T23:46:44.256Z,99622.22
2023-03-26T23:49:13.715Z,99617.88
2023-03-26T23:51:42.177Z,99642.19
2023-03-26T23:54:11.654Z,99636.16
2023-03-26T23:56:39.751Z,99643.94
2023-03-26T23:59:08.483Z,99641.34
